Time;durP1;ratioP1;P1;durP2;ratioP2;P2;SDS_P1;SDS_P2;PMS_P1;PMS_P2;Temp;Humidity;BMP_temperature;BMP_pressure;BME280_temperature;BME280_humidity;BME280_pressure;Samples;Min_cycle;Max_cycle;Signal;HPM_P1;HPM_P2
2022/12/13 00:00:21;;;;;;;0.17;0.17;;;;;;;;;;1760248;28;20581;-71
2022/12/13 00:01:15;;;;;;;0.10;0.10;;;;;;;;;;1760063;28;20235;-70
2022/12/13 00:02:07;;;;;;;0.00;0.00;;;;;;;;;;1759663;28;20209;-70
2022/12/13 00:02:58;;;;;;;0.10;0.10;;;;;;;;;;1760717;28;20697;-70
2022/12/13 00:03:52;;;;;;;0.10;0.10;;;;;;;;;;1759447;28;20200;-70
2022/12/13 00:04:43;;;;;;;0.00;0.00;;;;;;;;;;1760206;28;20205;-70
2022/12/13 00:05:36;;;;;;;0.40;0.40;;;;;;;;;;1760047;28;20656;-70
2022/12/13 00:06:27;;;;;;;0.00;0.00;;;;;;;;;;1760255;28;20236;-70
2022/12/13 00:07:19;;;;;;;0.10;0.10;;;;;;;;;;1759475;28;20674;-70
2022/12/13 00:08:10;;;;;;;0.30;0.30;;;;;;;;;;1759982;28;20930;-70
2022/12/13 00:09:02;;;;;;;0.20;0.20;;;;;;;;;;1759974;28;20200;-70
2022/12/13 00:09:53;;;;;;;0.13;0.13;;;;;;;;;;1760083;28;20205;-70
2022/12/13 00:10:45;;;;;;;0.20;0.20;;;;;;;;;;1760099;28;20542;-70
2022/12/13 00:11:36;;;;;;;0.20;0.20;;;;;;;;;;1760170;28;20642;-71
2022/12/13 00:12:28;;;;;;;0.32;0.32;;;;;;;;;;1759753;28;20200;-71
2022/12/13 00:13:19;;;;;;;0.20;0.20;;;;;;;;;;1759879;28;20256;-72
2022/12/13 00:14:12;;;;;;;0.10;0.10;;;;;;;;;;1759361;28;20205;-71
2022/12/13 00:15:04;;;;;;;0.10;0.10;;;;;;;;;;1761006;28;20253;-71
2022/12/13 00:15:57;;;;;;;0.13;0.13;;;;;;;;;;1759720;28;20201;-71
2022/12/13 00:16:50;;;;;;;0.08;0.08;;;;;;;;;;1760016;28;20303;-70
2022/12/13 00:17:42;;;;;;;0.10;0.10;;;;;;;;;;1759564;28;20201;-70
2022/12/13 00:18:34;;;;;;;0.10;0.10;;;;;;;;;;1759703;28;20196;-70
2022/12/13 00:19:26;;;;;;;0.10;0.10;;;;;;;;;;1759956;28;20219;-70
2022/12/13 00:20:17;;;;;;;0.00;0.00;;;;;;;;;;1760129;28;20266;-70
2022/12/13 00:21:12;;;;;;;0.13;0.13;;;;;;;;;;1760054;28;20211;-70
2022/12/13 00:22:03;;;;;;;0.20;0.20;;;;;;;;;;1759848;28;20201;-70
2022/12/13 00:22:56;;;;;;;0.20;0.20;;;;;;;;;;1760072;28;20207;-70
2022/12/13 00:23:47;;;;;;;0.10;0.10;;;;;;;;;;1759408;28;20208;-70
2022/12/13 00:24:39;;;;;;;0.20;0.20;;;;;;;;;;1759901;28;20471;-70
2022/12/13 00:25:30;;;;;;;0.10;0.10;;;;;;;;;;1760165;28;20212;-70
2022/12/13 00:26:23;;;;;;;0.20;0.20;;;;;;;;;;1759890;28;20269;-72
2022/12/13 00:27:14;;;;;;;0.05;0.05;;;;;;;;;;1759803;28;20236;-71
2022/12/13 00:28:07;;;;;;;0.00;0.00;;;;;;;;;;1760478;28;20203;-71
2022/12/13 00:28:59;;;;;;;0.30;0.30;;;;;;;;;;1757804;28;20204;-72
2022/12/13 00:29:51;;;;;;;0.00;0.00;;;;;;;;;;1760215;28;20201;-72
2022/12/13 00:30:42;;;;;;;0.10;0.10;;;;;;;;;;1759829;28;20573;-72
2022/12/13 00:31:35;;;;;;;0.20;0.20;;;;;;;;;;1760848;28;20232;-71
2022/12/13 00:32:27;;;;;;;0.30;0.30;;;;;;;;;;1760673;28;20489;-71
2022/12/13 00:33:19;;;;;;;0.15;0.15;;;;;;;;;;1761425;28;20204;-71
2022/12/13 00:34:10;;;;;;;0.20;0.20;;;;;;;;;;1760744;28;20201;-72
2022/12/13 00:35:03;;;;;;;0.20;0.20;;;;;;;;;;1761851;28;20208;-72
2022/12/13 00:35:55;;;;;;;0.10;0.10;;;;;;;;;;1760857;28;20259;-71
2022/12/13 00:36:47;;;;;;;0.10;0.10;;;;;;;;;;1761303;28;20239;-72
2022/12/13 00:37:38;;;;;;;0.10;0.10;;;;;;;;;;1760967;27;20216;-72
2022/12/13 00:38:30;;;;;;;0.20;0.20;;;;;;;;;;1761236;28;20534;-71
2022/12/13 00:39:21;;;;;;;0.00;0.00;;;;;;;;;;1760805;28;20236;-71
2022/12/13 00:40:13;;;;;;;0.00;0.00;;;;;;;;;;1761645;28;20566;-72
2022/12/13 00:41:11;;;;;;;0.20;0.20;;;;;;;;;;1761483;28;20244;-72
2022/12/13 00:42:03;;;;;;;0.00;0.00;;;;;;;;;;1757023;28;20206;-72
2022/12/13 00:42:55;;;;;;;0.10;0.10;;;;;;;;;;1761197;28;20265;-72
2022/12/13 00:43:47;;;;;;;0.40;0.40;;;;;;;;;;1760905;28;20284;-72
2022/12/13 00:44:38;;;;;;;0.10;0.10;;;;;;;;;;1761454;28;20220;-71
2022/12/13 00:45:30;;;;;;;0.20;0.20;;;;;;;;;;1761092;28;20212;-72
2022/12/13 00:46:21;;;;;;;0.30;0.30;;;;;;;;;;1761460;28;20197;-71
2022/12/13 00:47:13;;;;;;;0.10;0.10;;;;;;;;;;1760595;28;20464;-70
2022/12/13 00:48:06;;;;;;;0.10;0.10;;;;;;;;;;1761708;28;20257;-70
2022/12/13 00:48:59;;;;;;;0.00;0.00;;;;;;;;;;1760873;28;20209;-71
2022/12/13 00:49:50;;;;;;;0.20;0.20;;;;;;;;;;1761500;28;20261;-70
2022/12/13 00:50:42;;;;;;;0.05;0.05;;;;;;;;;;1761251;28;20207;-70
2022/12/13 00:51:34;;;;;;;0.10;0.10;;;;;;;;;;1761303;28;20205;-71
2022/12/13 00:52:26;;;;;;;0.20;0.20;;;;;;;;;;1760919;28;20207;-72
2022/12/13 00:53:17;;;;;;;0.20;0.20;;;;;;;;;;1761000;28;20205;-72
2022/12/13 00:54:09;;;;;;;0.10;0.10;;;;;;;;;;1760629;28;20205;-72
2022/12/13 00:55:02;;;;;;;0.10;0.10;;;;;;;;;;1761843;28;20239;-72
2022/12/13 00:55:54;;;;;;;0.00;0.00;;;;;;;;;;1760464;28;20211;-72
2022/12/13 00:56:45;;;;;;;0.10;0.10;;;;;;;;;;1761428;28;20212;-72
2022/12/13 00:57:37;;;;;;;0.20;0.20;;;;;;;;;;1760746;28;20208;-72
2022/12/13 00:58:28;;;;;;;0.20;0.20;;;;;;;;;;1761328;28;20216;-72
2022/12/13 00:59:20;;;;;;;0.10;0.10;;;;;;;;;;1760992;28;20266;-71
2022/12/13 01:00:11;;;;;;;0.00;0.00;;;;;;;;;;1761487;28;20228;-71
2022/12/13 01:01:04;;;;;;;0.17;0.17;;;;;;;;;;1760967;28;20250;-71
2022/12/13 01:01:55;;;;;;;0.35;0.35;;;;;;;;;;1760946;28;20216;-71
2022/12/13 01:02:47;;;;;;;0.20;0.20;;;;;;;;;;1761244;28;20213;-71
2022/12/13 01:03:40;;;;;;;0.10;0.10;;;;;;;;;;1760551;28;20216;-71
2022/12/13 01:04:32;;;;;;;0.03;0.03;;;;;;;;;;1761027;28;20208;-71
2022/12/13 01:05:23;;;;;;;0.00;0.00;;;;;;;;;;1761100;28;20213;-71
2022/12/13 01:06:16;;;;;;;0.20;0.20;;;;;;;;;;1761160;28;20624;-71
2022/12/13 01:07:08;;;;;;;0.20;0.20;;;;;;;;;;1761050;28;20209;-70
2022/12/13 01:07:59;;;;;;;0.10;0.10;;;;;;;;;;1760893;28;20230;-70
2022/12/13 01:08:51;;;;;;;0.10;0.10;;;;;;;;;;1760854;28;20217;-70
2022/12/13 01:09:42;;;;;;;0.10;0.10;;;;;;;;;;1761257;28;20292;-70
2022/12/13 01:10:34;;;;;;;0.20;0.20;;;;;;;;;;1761119;28;20205;-70
2022/12/13 01:11:25;;;;;;;0.15;0.15;;;;;;;;;;1761211;28;20204;-70
2022/12/13 01:12:18;;;;;;;0.20;0.20;;;;;;;;;;1760546;28;20322;-70
2022/12/13 01:13:09;;;;;;;0.05;0.05;;;;;;;;;;1761378;28;20197;-70
2022/12/13 01:14:01;;;;;;;0.22;0.22;;;;;;;;;;1760942;28;20319;-70
2022/12/13 01:14:53;;;;;;;0.20;0.20;;;;;;;;;;1755361;28;20237;-70
2022/12/13 01:15:45;;;;;;;0.20;0.20;;;;;;;;;;1759708;28;20209;-70
2022/12/13 01:16:37;;;;;;;0.20;0.20;;;;;;;;;;1761079;28;20534;-71
2022/12/13 01:17:29;;;;;;;0.00;0.00;;;;;;;;;;1760758;28;20522;-71
2022/12/13 01:18:21;;;;;;;0.10;0.10;;;;;;;;;;1761239;28;20224;-71
2022/12/13 01:19:14;;;;;;;0.10;0.10;;;;;;;;;;1760734;28;20246;-71
2022/12/13 01:20:06;;;;;;;0.30;0.30;;;;;;;;;;1761850;28;20212;-71
2022/12/13 01:20:58;;;;;;;0.10;0.10;;;;;;;;;;1760478;28;20227;-71
2022/12/13 01:21:50;;;;;;;0.10;0.10;;;;;;;;;;1761034;28;20279;-71
2022/12/13 01:22:41;;;;;;;0.20;0.20;;;;;;;;;;1760774;28;20208;-71
2022/12/13 01:23:34;;;;;;;0.05;0.05;;;;;;;;;;1760538;28;20200;-71
2022/12/13 01:24:26;;;;;;;0.08;0.08;;;;;;;;;;1760789;28;20244;-71
2022/12/13 01:25:17;;;;;;;0.20;0.20;;;;;;;;;;1761079;28;20223;-71
2022/12/13 01:26:11;;;;;;;0.20;0.20;;;;;;;;;;1761290;28;20314;-70
2022/12/13 01:27:02;;;;;;;0.20;0.20;;;;;;;;;;1756327;28;20201;-70
2022/12/13 01:27:54;;;;;;;0.15;0.15;;;;;;;;;;1760998;28;20205;-70
2022/12/13 01:28:45;;;;;;;0.10;0.10;;;;;;;;;;1760581;28;20635;-70
2022/12/13 01:29:37;;;;;;;0.00;0.00;;;;;;;;;;1761334;28;20662;-70
2022/12/13 01:30:29;;;;;;;0.10;0.10;;;;;;;;;;1761013;28;20205;-70
2022/12/13 01:31:21;;;;;;;0.10;0.10;;;;;;;;;;1760910;28;20200;-70
2022/12/13 01:32:12;;;;;;;0.20;0.20;;;;;;;;;;1760606;28;20236;-70
2022/12/13 01:33:04;;;;;;;0.10;0.10;;;;;;;;;;1761241;28;20193;-70
2022/12/13 01:33:55;;;;;;;0.10;0.10;;;;;;;;;;1760582;28;20555;-70
2022/12/13 01:34:48;;;;;;;0.10;0.10;;;;;;;;;;1761023;28;20626;-70
2022/12/13 01:35:39;;;;;;;0.00;0.00;;;;;;;;;;1761035;28;20209;-71
2022/12/13 01:36:31;;;;;;;0.10;0.10;;;;;;;;;;1761009;28;20523;-71
2022/12/13 01:37:23;;;;;;;0.08;0.08;;;;;;;;;;1760391;28;20212;-71
2022/12/13 01:38:15;;;;;;;0.15;0.15;;;;;;;;;;1761132;28;20211;-71
2022/12/13 01:39:08;;;;;;;0.10;0.10;;;;;;;;;;1760659;28;20653;-71
2022/12/13 01:39:59;;;;;;;0.20;0.20;;;;;;;;;;1761207;28;20196;-71
2022/12/13 01:40:56;;;;;;;0.10;0.10;;;;;;;;;;1760894;28;20208;-71
2022/12/13 01:41:49;;;;;;;0.00;0.00;;;;;;;;;;1760810;28;20430;-70
2022/12/13 01:42:41;;;;;;;0.38;0.38;;;;;;;;;;1760309;28;20223;-70
2022/12/13 01:43:47;;;;;;;0.10;0.10;;;;;;;;;;1760370;28;20212;-70
2022/12/13 01:45:09;;;;;;;0.20;0.20;;;;;;;;;;1760841;28;20274;-70
2022/12/13 01:46:00;;;;;;;0.10;0.10;;;;;;;;;;1732334;28;20223;-70
2022/12/13 01:46:52;;;;;;;0.30;0.30;;;;;;;;;;1732200;28;20533;-70
2022/12/13 01:47:46;;;;;;;0.10;0.10;;;;;;;;;;1732006;28;20612;-70
2022/12/13 01:48:40;;;;;;;0.10;0.10;;;;;;;;;;1747245;28;20591;-70
2022/12/13 01:49:31;;;;;;;0.00;0.00;;;;;;;;;;1760793;28;20256;-70
2022/12/13 01:50:27;;;;;;;0.20;0.20;;;;;;;;;;1760976;28;20189;-71
2022/12/13 01:51:20;;;;;;;0.10;0.10;;;;;;;;;;1759410;28;20583;-71
2022/12/13 01:52:14;;;;;;;0.17;0.17;;;;;;;;;;1760516;28;20572;-71
2022/12/13 01:53:06;;;;;;;0.20;0.20;;;;;;;;;;1761266;28;20224;-71
2022/12/13 01:54:01;;;;;;;0.00;0.00;;;;;;;;;;1760256;28;20289;-71
2022/12/13 01:54:54;;;;;;;0.20;0.20;;;;;;;;;;1760919;28;20255;-71
2022/12/13 01:55:47;;;;;;;0.10;0.10;;;;;;;;;;1760724;28;20220;-71
2022/12/13 01:56:41;;;;;;;0.10;0.10;;;;;;;;;;1761245;28;20247;-71
2022/12/13 01:57:33;;;;;;;0.15;0.15;;;;;;;;;;1760512;28;20995;-71
2022/12/13 01:58:25;;;;;;;0.10;0.10;;;;;;;;;;1760745;28;20241;-71
2022/12/13 01:59:18;;;;;;;0.10;0.10;;;;;;;;;;1760479;28;20511;-71
2022/12/13 02:00:10;;;;;;;0.40;0.40;;;;;;;;;;1761326;28;20201;-71
2022/12/13 02:01:02;;;;;;;0.10;0.10;;;;;;;;;;1760876;28;20255;-70
2022/12/13 02:01:53;;;;;;;0.20;0.20;;;;;;;;;;1760556;28;20209;-70
2022/12/13 02:02:46;;;;;;;0.08;0.08;;;;;;;;;;1760579;28;20201;-70
2022/12/13 02:03:37;;;;;;;0.20;0.20;;;;;;;;;;1760520;28;20232;-70
2022/12/13 02:04:30;;;;;;;0.32;0.32;;;;;;;;;;1760607;28;20205;-70
2022/12/13 02:05:26;;;;;;;0.10;0.10;;;;;;;;;;1760931;28;20213;-70
2022/12/13 02:06:20;;;;;;;0.10;0.10;;;;;;;;;;1758484;28;20208;-70
2022/12/13 02:07:11;;;;;;;0.20;0.20;;;;;;;;;;1760233;28;20212;-70
2022/12/13 02:08:05;;;;;;;0.28;0.28;;;;;;;;;;1760821;28;20244;-70
2022/12/13 02:08:57;;;;;;;0.00;0.00;;;;;;;;;;1760477;28;20845;-70
2022/12/13 02:09:50;;;;;;;0.00;0.00;;;;;;;;;;1761118;28;20209;-70
2022/12/13 02:10:42;;;;;;;0.00;0.00;;;;;;;;;;1760720;28;20243;-70
2022/12/13 02:11:34;;;;;;;0.13;0.13;;;;;;;;;;1760932;28;20200;-70
2022/12/13 02:12:26;;;;;;;0.00;0.00;;;;;;;;;;1760168;28;20205;-70
2022/12/13 02:13:18;;;;;;;0.20;0.20;;;;;;;;;;1760482;28;20236;-70
2022/12/13 02:14:10;;;;;;;0.10;0.10;;;;;;;;;;1760568;28;20219;-70
2022/12/13 02:15:03;;;;;;;0.00;0.00;;;;;;;;;;1760789;28;20239;-70
2022/12/13 02:15:57;;;;;;;0.25;0.25;;;;;;;;;;1760302;28;20219;-70
2022/12/13 02:16:55;;;;;;;0.10;0.10;;;;;;;;;;1760543;28;20244;-70
2022/12/13 02:17:52;;;;;;;0.20;0.20;;;;;;;;;;1760563;28;20204;-70
2022/12/13 02:18:52;;;;;;;0.00;0.00;;;;;;;;;;1760435;28;20288;-70
2022/12/13 02:20:14;;;;;;;0.17;0.17;;;;;;;;;;1759326;28;20630;-70
2022/12/13 02:21:11;;;;;;;0.20;0.20;;;;;;;;;;1760598;28;20683;-70
2022/12/13 02:22:09;;;;;;;0.10;0.10;;;;;;;;;;1756373;28;20232;-70
2022/12/13 02:23:08;;;;;;;0.22;0.22;;;;;;;;;;1760324;28;20649;-70
2022/12/13 02:24:19;;;;;;;0.15;0.15;;;;;;;;;;1760296;28;20224;-70
2022/12/13 02:25:20;;;;;;;0.20;0.20;;;;;;;;;;1755030;28;20202;-70
2022/12/13 02:26:29;;;;;;;0.10;0.10;;;;;;;;;;1760808;28;20653;-72
2022/12/13 02:27:32;;;;;;;0.00;0.00;;;;;;;;;;1758285;28;20212;-72
2022/12/13 02:28:33;;;;;;;0.20;0.20;;;;;;;;;;1760861;28;20492;-71
2022/12/13 02:29:46;;;;;;;0.15;0.15;;;;;;;;;;1760381;28;20601;-71
2022/12/13 02:30:40;;;;;;;0.10;0.10;;;;;;;;;;1760631;28;20205;-71
2022/12/13 02:31:32;;;;;;;0.10;0.10;;;;;;;;;;1760643;28;20224;-70
2022/12/13 02:32:29;;;;;;;0.20;0.20;;;;;;;;;;1760150;28;20205;-70
2022/12/13 02:33:25;;;;;;;0.00;0.00;;;;;;;;;;1760689;28;20178;-70
2022/12/13 02:34:19;;;;;;;0.20;0.20;;;;;;;;;;1760230;28;20550;-70
2022/12/13 02:35:12;;;;;;;0.20;0.20;;;;;;;;;;1761260;28;20625;-70
2022/12/13 02:36:09;;;;;;;0.70;0.70;;;;;;;;;;1760941;28;20199;-72
2022/12/13 02:37:03;;;;;;;0.00;0.00;;;;;;;;;;1760388;28;20224;-71
2022/12/13 02:37:59;;;;;;;0.00;0.00;;;;;;;;;;1760125;28;20288;-72
2022/12/13 02:38:52;;;;;;;0.10;0.10;;;;;;;;;;1760342;28;20216;-72
2022/12/13 02:39:48;;;;;;;0.10;0.10;;;;;;;;;;1760410;28;20211;-71
2022/12/13 02:40:41;;;;;;;0.08;0.08;;;;;;;;;;1760611;28;20530;-72
2022/12/13 02:41:36;;;;;;;0.25;0.25;;;;;;;;;;1760505;28;20657;-72
2022/12/13 02:42:29;;;;;;;0.10;0.10;;;;;;;;;;1760045;28;20678;-71
2022/12/13 02:43:24;;;;;;;0.00;0.00;;;;;;;;;;1760598;28;20580;-70
2022/12/13 02:44:18;;;;;;;0.05;0.05;;;;;;;;;;1759863;28;20885;-70
2022/12/13 02:45:12;;;;;;;0.10;0.10;;;;;;;;;;1761027;28;20630;-70
2022/12/13 02:46:06;;;;;;;0.10;0.10;;;;;;;;;;1760385;28;20205;-72
2022/12/13 02:46:59;;;;;;;0.10;0.10;;;;;;;;;;1760222;28;20283;-72
2022/12/13 02:47:53;;;;;;;0.20;0.20;;;;;;;;;;1760324;28;20261;-72
2022/12/13 02:48:46;;;;;;;0.00;0.00;;;;;;;;;;1760245;28;20714;-71
2022/12/13 02:49:40;;;;;;;0.25;0.25;;;;;;;;;;1760624;28;20686;-72
2022/12/13 02:50:32;;;;;;;0.05;0.05;;;;;;;;;;1760474;28;20204;-72
2022/12/13 02:51:24;;;;;;;0.03;0.03;;;;;;;;;;1760710;28;20829;-70
2022/12/13 02:52:18;;;;;;;0.10;0.10;;;;;;;;;;1759978;28;20221;-70
2022/12/13 02:53:09;;;;;;;0.20;0.20;;;;;;;;;;1760651;28;20208;-70
2022/12/13 02:54:01;;;;;;;0.00;0.00;;;;;;;;;;1758994;28;20584;-70
2022/12/13 02:54:53;;;;;;;0.20;0.20;;;;;;;;;;1760305;28;20249;-70
2022/12/13 02:55:45;;;;;;;0.05;0.05;;;;;;;;;;1760496;28;20208;-70
2022/12/13 02:56:36;;;;;;;0.10;0.10;;;;;;;;;;1760507;28;20239;-70
2022/12/13 02:57:30;;;;;;;0.20;0.20;;;;;;;;;;1760095;28;20197;-70
2022/12/13 02:58:23;;;;;;;0.10;0.10;;;;;;;;;;1760364;28;20271;-70
2022/12/13 02:59:15;;;;;;;0.20;0.20;;;;;;;;;;1760182;28;20229;-70
2022/12/13 03:00:08;;;;;;;0.10;0.10;;;;;;;;;;1761250;28;20231;-70
2022/12/13 03:01:04;;;;;;;0.22;0.22;;;;;;;;;;1759560;28;20551;-70
2022/12/13 03:02:04;;;;;;;0.08;0.08;;;;;;;;;;1760242;28;20606;-70
2022/12/13 03:03:03;;;;;;;0.22;0.22;;;;;;;;;;1760309;28;20224;-70
2022/12/13 03:04:01;;;;;;;0.20;0.20;;;;;;;;;;1759943;28;20207;-70
2022/12/13 03:06:29;;;;;;;0.00;0.00;;;;;;;;;;1738953;28;20249;-71
2022/12/13 03:07:25;;;;;;;0.10;0.10;;;;;;;;;;1757985;27;20242;-71
2022/12/13 03:08:20;;;;;;;0.20;0.20;;;;;;;;;;1760330;28;20204;-71
2022/12/13 03:09:19;;;;;;;0.00;0.00;;;;;;;;;;1759974;28;20201;-71
2022/12/13 03:10:16;;;;;;;0.00;0.00;;;;;;;;;;1754923;28;20182;-71
2022/12/13 03:11:09;;;;;;;0.00;0.00;;;;;;;;;;1759692;28;20220;-71
2022/12/13 03:13:37;;;;;;;0.10;0.10;;;;;;;;;;1753550;28;20250;-71
2022/12/13 03:14:28;;;;;;;0.20;0.20;;;;;;;;;;1759341;28;20224;-71
2022/12/13 03:15:22;;;;;;;0.45;0.45;;;;;;;;;;1759986;28;20582;-71
2022/12/13 03:16:18;;;;;;;0.20;0.20;;;;;;;;;;1760516;28;20285;-70
2022/12/13 03:17:12;;;;;;;0.10;0.10;;;;;;;;;;1756568;28;20197;-70
2022/12/13 03:18:14;;;;;;;0.10;0.10;;;;;;;;;;1760238;28;20588;-70
2022/12/13 03:19:06;;;;;;;0.10;0.10;;;;;;;;;;1758818;28;20257;-70
2022/12/13 03:19:58;;;;;;;0.20;0.20;;;;;;;;;;1760235;28;20825;-70
2022/12/13 03:20:50;;;;;;;0.17;0.17;;;;;;;;;;1759133;28;20637;-71
2022/12/13 03:21:44;;;;;;;0.10;0.10;;;;;;;;;;1760515;28;20212;-71
2022/12/13 03:22:35;;;;;;;0.05;0.05;;;;;;;;;;1759360;28;20240;-71
2022/12/13 03:23:28;;;;;;;0.10;0.10;;;;;;;;;;1759722;28;20197;-71
2022/12/13 03:24:20;;;;;;;0.00;0.00;;;;;;;;;;1759651;28;20205;-71
2022/12/13 03:25:12;;;;;;;0.20;0.20;;;;;;;;;;1760928;28;20193;-71
2022/12/13 03:26:06;;;;;;;0.20;0.20;;;;;;;;;;1760115;28;20279;-70
2022/12/13 03:26:58;;;;;;;0.00;0.00;;;;;;;;;;1759744;28;20249;-70
2022/12/13 03:27:49;;;;;;;0.10;0.10;;;;;;;;;;1759506;28;20646;-70
2022/12/13 03:28:42;;;;;;;0.20;0.20;;;;;;;;;;1759691;28;20465;-70
2022/12/13 03:29:33;;;;;;;0.10;0.10;;;;;;;;;;1760318;28;20602;-70
2022/12/13 03:30:25;;;;;;;0.10;0.10;;;;;;;;;;1760019;28;20209;-70
2022/12/13 03:31:16;;;;;;;0.10;0.10;;;;;;;;;;1760000;28;20402;-71
2022/12/13 03:32:08;;;;;;;0.30;0.30;;;;;;;;;;1759868;28;20193;-71
2022/12/13 03:33:01;;;;;;;0.10;0.10;;;;;;;;;;1760144;28;20545;-71
2022/12/13 03:33:53;;;;;;;0.20;0.20;;;;;;;;;;1759628;28;20655;-71
2022/12/13 03:34:44;;;;;;;0.05;0.05;;;;;;;;;;1759951;28;20614;-71
2022/12/13 03:35:36;;;;;;;0.13;0.13;;;;;;;;;;1760111;28;20299;-71
2022/12/13 03:36:27;;;;;;;0.20;0.20;;;;;;;;;;1760265;28;20201;-71
2022/12/13 03:37:19;;;;;;;0.20;0.20;;;;;;;;;;1759575;28;20642;-71
2022/12/13 03:38:10;;;;;;;0.10;0.10;;;;;;;;;;1760429;28;20216;-71
2022/12/13 03:39:03;;;;;;;0.00;0.00;;;;;;;;;;1759610;28;20200;-71
2022/12/13 03:39:54;;;;;;;0.10;0.10;;;;;;;;;;1760205;28;20232;-71
2022/12/13 03:40:45;;;;;;;0.00;0.00;;;;;;;;;;1760098;28;20207;-71
2022/12/13 03:41:37;;;;;;;0.10;0.10;;;;;;;;;;1760213;28;20204;-71
2022/12/13 03:42:28;;;;;;;0.00;0.00;;;;;;;;;;1759681;28;20328;-71
2022/12/13 03:43:20;;;;;;;0.00;0.00;;;;;;;;;;1760231;28;20628;-71
2022/12/13 03:44:11;;;;;;;0.30;0.30;;;;;;;;;;1759888;28;20208;-71
2022/12/13 03:45:04;;;;;;;0.17;0.17;;;;;;;;;;1760667;28;20300;-71
2022/12/13 03:45:55;;;;;;;0.00;0.00;;;;;;;;;;1759171;28;20302;-70
2022/12/13 03:46:47;;;;;;;0.00;0.00;;;;;;;;;;1759862;28;20199;-70
2022/12/13 03:47:38;;;;;;;0.10;0.10;;;;;;;;;;1759877;28;20201;-70
2022/12/13 03:48:31;;;;;;;0.10;0.10;;;;;;;;;;1760107;28;20719;-70
2022/12/13 03:49:22;;;;;;;0.10;0.10;;;;;;;;;;1759968;28;20218;-70
2022/12/13 03:50:14;;;;;;;0.10;0.10;;;;;;;;;;1760426;28;20642;-70
2022/12/13 03:51:06;;;;;;;0.20;0.20;;;;;;;;;;1760152;28;20205;-70
2022/12/13 03:51:58;;;;;;;0.15;0.15;;;;;;;;;;1759682;28;20300;-70
2022/12/13 03:52:50;;;;;;;0.10;0.10;;;;;;;;;;1760208;28;20204;-70
2022/12/13 03:53:43;;;;;;;0.15;0.15;;;;;;;;;;1759219;28;20197;-70
2022/12/13 03:54:34;;;;;;;0.10;0.10;;;;;;;;;;1757279;28;20205;-70
2022/12/13 03:55:25;;;;;;;0.00;0.00;;;;;;;;;;1760143;28;20204;-70
2022/12/13 03:56:17;;;;;;;0.40;0.40;;;;;;;;;;1760306;28;20328;-70
2022/12/13 03:57:08;;;;;;;0.30;0.30;;;;;;;;;;1756577;28;20682;-70
2022/12/13 03:58:00;;;;;;;0.20;0.20;;;;;;;;;;1760066;28;20208;-70
2022/12/13 03:58:51;;;;;;;0.10;0.10;;;;;;;;;;1759860;28;20209;-70
2022/12/13 03:59:43;;;;;;;0.10;0.10;;;;;;;;;;1760188;28;20250;-70
2022/12/13 04:00:34;;;;;;;0.10;0.10;;;;;;;;;;1760065;28;20212;-70
2022/12/13 04:01:27;;;;;;;0.17;0.17;;;;;;;;;;1760100;28;20213;-71
2022/12/13 04:02:18;;;;;;;0.10;0.10;;;;;;;;;;1759476;28;20208;-71
2022/12/13 04:03:10;;;;;;;0.00;0.00;;;;;;;;;;1760656;28;20196;-71
2022/12/13 04:04:02;;;;;;;0.10;0.10;;;;;;;;;;1759808;28;20205;-71
2022/12/13 04:04:54;;;;;;;0.08;0.08;;;;;;;;;;1760510;28;20777;-71
2022/12/13 04:05:45;;;;;;;0.05;0.05;;;;;;;;;;1760234;28;20614;-71
2022/12/13 04:06:38;;;;;;;0.00;0.00;;;;;;;;;;1760501;28;20212;-71
2022/12/13 04:07:29;;;;;;;0.10;0.10;;;;;;;;;;1759971;28;20212;-72
2022/12/13 04:08:21;;;;;;;0.00;0.00;;;;;;;;;;1759949;28;20678;-72
2022/12/13 04:09:12;;;;;;;0.10;0.10;;;;;;;;;;1759849;28;20212;-71
2022/12/13 04:10:05;;;;;;;0.10;0.10;;;;;;;;;;1760499;28;20204;-71
2022/12/13 04:10:56;;;;;;;0.10;0.10;;;;;;;;;;1759736;28;20207;-70
2022/12/13 04:14:08;;;;;;;0.10;0.10;;;;;;;;;;1752544;28;20255;-70
2022/12/13 04:14:59;;;;;;;0.10;0.10;;;;;;;;;;1752891;28;20217;-70
2022/12/13 04:15:51;;;;;;;0.00;0.00;;;;;;;;;;1752830;28;20528;-70
2022/12/13 04:16:42;;;;;;;0.00;0.00;;;;;;;;;;1752685;28;20223;-70
2022/12/13 04:17:34;;;;;;;0.05;0.05;;;;;;;;;;1752374;28;20201;-71
2022/12/13 04:18:25;;;;;;;0.10;0.10;;;;;;;;;;1753087;28;20550;-70
2022/12/13 04:19:18;;;;;;;0.20;0.20;;;;;;;;;;1753062;28;20271;-70
2022/12/13 04:20:10;;;;;;;0.00;0.00;;;;;;;;;;1747489;28;20210;-70
2022/12/13 04:21:02;;;;;;;0.20;0.20;;;;;;;;;;1752336;28;20204;-70
2022/12/13 04:21:53;;;;;;;0.10;0.10;;;;;;;;;;1752782;28;20213;-70
2022/12/13 04:22:45;;;;;;;0.10;0.10;;;;;;;;;;1752818;28;20215;-70
2022/12/13 04:23:36;;;;;;;0.10;0.10;;;;;;;;;;1752203;28;20677;-70
2022/12/13 04:24:28;;;;;;;0.10;0.10;;;;;;;;;;1752019;28;20594;-70
2022/12/13 04:25:19;;;;;;;0.00;0.00;;;;;;;;;;1752884;28;20208;-70
2022/12/13 04:26:11;;;;;;;0.10;0.10;;;;;;;;;;1753257;28;20201;-71
2022/12/13 04:27:03;;;;;;;0.10;0.10;;;;;;;;;;1752149;28;20212;-70
2022/12/13 04:27:55;;;;;;;0.10;0.10;;;;;;;;;;1752929;28;20207;-72
2022/12/13 04:28:46;;;;;;;0.10;0.10;;;;;;;;;;1752712;28;20248;-70
2022/12/13 04:29:38;;;;;;;0.10;0.10;;;;;;;;;;1753075;28;20197;-70
2022/12/13 04:30:29;;;;;;;0.10;0.10;;;;;;;;;;1753119;28;20206;-70
2022/12/13 04:31:20;;;;;;;0.00;0.00;;;;;;;;;;1752844;28;20570;-71
2022/12/13 04:32:12;;;;;;;0.10;0.10;;;;;;;;;;1752838;28;20198;-71
2022/12/13 04:33:03;;;;;;;0.10;0.10;;;;;;;;;;1752857;28;20210;-71
2022/12/13 04:33:55;;;;;;;0.25;0.25;;;;;;;;;;1752486;28;20567;-71
2022/12/13 04:34:47;;;;;;;0.10;0.10;;;;;;;;;;1752826;28;20259;-71
2022/12/13 04:35:40;;;;;;;0.10;0.10;;;;;;;;;;1752746;28;20642;-71
2022/12/13 04:36:31;;;;;;;0.00;0.00;;;;;;;;;;1751466;28;20197;-71
2022/12/13 04:37:23;;;;;;;0.15;0.15;;;;;;;;;;1752538;28;20237;-71
2022/12/13 04:38:14;;;;;;;0.05;0.05;;;;;;;;;;1753009;28;20565;-71
2022/12/13 04:39:06;;;;;;;0.00;0.00;;;;;;;;;;1752573;28;20301;-71
2022/12/13 04:39:57;;;;;;;0.10;0.10;;;;;;;;;;1751735;28;20327;-71
2022/12/13 04:40:50;;;;;;;0.00;0.00;;;;;;;;;;1752800;28;20493;-71
2022/12/13 04:41:41;;;;;;;0.10;0.10;;;;;;;;;;1753314;28;20280;-71
2022/12/13 04:42:33;;;;;;;0.10;0.10;;;;;;;;;;1752400;28;20602;-71
2022/12/13 04:43:24;;;;;;;0.00;0.00;;;;;;;;;;1753048;28;20205;-71
2022/12/13 04:44:16;;;;;;;0.20;0.20;;;;;;;;;;1752569;28;20201;-71
2022/12/13 04:45:07;;;;;;;0.00;0.00;;;;;;;;;;1753140;28;20202;-71
2022/12/13 04:46:00;;;;;;;0.10;0.10;;;;;;;;;;1752550;28;20713;-70
2022/12/13 04:46:52;;;;;;;0.10;0.10;;;;;;;;;;1752663;28;20815;-70
2022/12/13 04:47:43;;;;;;;0.10;0.10;;;;;;;;;;1752694;28;20217;-70
2022/12/13 04:48:35;;;;;;;0.00;0.00;;;;;;;;;;1752835;28;20306;-70
2022/12/13 04:49:26;;;;;;;0.00;0.00;;;;;;;;;;1752873;28;20228;-70
2022/12/13 04:50:20;;;;;;;0.15;0.15;;;;;;;;;;1753252;28;20224;-70
2022/12/13 04:51:11;;;;;;;0.00;0.00;;;;;;;;;;1753180;28;20208;-71
2022/12/13 04:52:03;;;;;;;0.10;0.10;;;;;;;;;;1752444;28;20258;-71
2022/12/13 04:52:54;;;;;;;0.00;0.00;;;;;;;;;;1752623;28;20259;-71
2022/12/13 04:53:46;;;;;;;0.20;0.20;;;;;;;;;;1752453;28;20573;-71
2022/12/13 04:54:37;;;;;;;0.10;0.10;;;;;;;;;;1750317;28;20219;-71
2022/12/13 04:55:29;;;;;;;0.10;0.10;;;;;;;;;;1752658;28;20209;-71
2022/12/13 04:56:20;;;;;;;0.10;0.10;;;;;;;;;;1753105;28;20212;-71
2022/12/13 04:57:13;;;;;;;0.05;0.05;;;;;;;;;;1752783;28;20698;-71
2022/12/13 04:58:04;;;;;;;0.20;0.20;;;;;;;;;;1752897;28;20202;-71
2022/12/13 04:58:56;;;;;;;0.00;0.00;;;;;;;;;;1752388;28;20255;-70
2022/12/13 04:59:47;;;;;;;0.05;0.05;;;;;;;;;;1752985;28;20551;-71
2022/12/13 05:00:40;;;;;;;0.00;0.00;;;;;;;;;;1752905;28;20205;-71
2022/12/13 05:01:31;;;;;;;0.15;0.15;;;;;;;;;;1752645;28;20623;-71
2022/12/13 05:02:23;;;;;;;0.10;0.10;;;;;;;;;;1752389;28;20216;-71
2022/12/13 05:03:15;;;;;;;0.00;0.00;;;;;;;;;;1753043;28;20297;-71
2022/12/13 05:04:07;;;;;;;0.30;0.30;;;;;;;;;;1752503;28;20229;-71
2022/12/13 05:04:58;;;;;;;0.10;0.10;;;;;;;;;;1751480;28;20623;-71
2022/12/13 05:05:51;;;;;;;0.10;0.10;;;;;;;;;;1752801;28;20266;-71
2022/12/13 05:06:42;;;;;;;0.30;0.30;;;;;;;;;;1753058;28;20237;-70
2022/12/13 05:07:34;;;;;;;0.10;0.10;;;;;;;;;;1752062;28;20206;-69
2022/12/13 05:08:25;;;;;;;0.20;0.20;;;;;;;;;;1752972;28;20249;-70
2022/12/13 05:09:17;;;;;;;0.03;0.03;;;;;;;;;;1752266;28;20229;-70
2022/12/13 05:10:09;;;;;;;0.00;0.00;;;;;;;;;;1753257;28;20241;-70
2022/12/13 05:11:01;;;;;;;0.10;0.10;;;;;;;;;;1752699;28;20241;-71
2022/12/13 05:11:52;;;;;;;0.00;0.00;;;;;;;;;;1752637;28;20212;-71
2022/12/13 05:12:44;;;;;;;0.10;0.10;;;;;;;;;;1752733;28;20205;-71
2022/12/13 05:13:35;;;;;;;0.00;0.00;;;;;;;;;;1755225;28;20498;-71
2022/12/13 05:14:27;;;;;;;0.10;0.10;;;;;;;;;;1759554;28;20220;-71
2022/12/13 05:15:18;;;;;;;0.10;0.10;;;;;;;;;;1760264;28;20252;-71
2022/12/13 05:16:11;;;;;;;0.20;0.20;;;;;;;;;;1759503;28;20201;-70
2022/12/13 05:17:02;;;;;;;0.00;0.00;;;;;;;;;;1759387;28;20242;-70
2022/12/13 05:17:54;;;;;;;0.00;0.00;;;;;;;;;;1760921;28;20219;-70
2022/12/13 05:18:45;;;;;;;0.08;0.08;;;;;;;;;;1760719;28;20209;-70
2022/12/13 05:19:37;;;;;;;0.00;0.00;;;;;;;;;;1761128;28;20254;-70
2022/12/13 05:20:28;;;;;;;0.10;0.10;;;;;;;;;;1760907;28;20216;-69
2022/12/13 05:21:22;;;;;;;0.10;0.10;;;;;;;;;;1761564;28;20212;-71
2022/12/13 05:22:14;;;;;;;0.10;0.10;;;;;;;;;;1760863;28;20214;-71